sensor_id;sensor_type;location;lat;lon;timestamp;P1;durP1;ratioP1;P2;durP2;ratioP2
72060;SDS011;59925;52.136;5.420;2022-11-20T00:01:14;11.50;;;6.80;;
72060;SDS011;59925;52.136;5.420;2022-11-20T00:03:43;12.75;;;6.07;;
72060;SDS011;59925;52.136;5.420;2022-11-20T00:06:14;10.68;;;6.07;;
72060;SDS011;59925;52.136;5.420;2022-11-20T00:08:42;12.30;;;6.38;;
72060;SDS011;59925;52.136;5.420;2022-11-20T00:11:12;13.90;;;6.57;;
72060;SDS011;59925;52.136;5.420;2022-11-20T00:13:43;11.57;;;5.95;;
72060;SDS011;59925;52.136;5.420;2022-11-20T00:16:11;13.93;;;6.30;;
72060;SDS011;59925;52.136;5.420;2022-11-20T00:18:39;12.25;;;6.75;;
72060;SDS011;59925;52.136;5.420;2022-11-20T00:21:06;16.27;;;7.60;;
72060;SDS011;59925;52.136;5.420;2022-11-20T00:23:36;12.87;;;5.17;;
72060;SDS011;59925;52.136;5.420;2022-11-20T00:26:03;18.05;;;6.60;;
72060;SDS011;59925;52.136;5.420;2022-11-20T00:28:31;15.02;;;6.45;;
72060;SDS011;59925;52.136;5.420;2022-11-20T00:31:02;11.23;;;6.07;;
72060;SDS011;59925;52.136;5.420;2022-11-20T00:33:31;12.95;;;6.35;;
72060;SDS011;59925;52.136;5.420;2022-11-20T00:35:59;12.63;;;6.50;;
72060;SDS011;59925;52.136;5.420;2022-11-20T00:38:27;12.13;;;6.28;;
72060;SDS011;59925;52.136;5.420;2022-11-20T00:40:57;13.27;;;6.60;;
72060;SDS011;59925;52.136;5.420;2022-11-20T00:43:24;11.80;;;5.72;;
72060;SDS011;59925;52.136;5.420;2022-11-20T00:45:55;14.63;;;7.22;;
72060;SDS011;59925;52.136;5.420;2022-11-20T00:48:23;16.00;;;7.43;;
72060;SDS011;59925;52.136;5.420;2022-11-20T00:50:50;13.80;;;6.75;;
72060;SDS011;59925;52.136;5.420;2022-11-20T00:53:16;14.23;;;6.65;;
72060;SDS011;59925;52.136;5.420;2022-11-20T00:55:43;12.15;;;6.70;;
72060;SDS011;59925;52.136;5.420;2022-11-20T00:58:18;11.57;;;6.30;;
72060;SDS011;59925;52.136;5.420;2022-11-20T01:00:45;13.90;;;6.40;;
72060;SDS011;59925;52.136;5.420;2022-11-20T01:03:11;11.93;;;6.13;;
72060;SDS011;59925;52.136;5.420;2022-11-20T01:05:38;13.13;;;6.20;;
72060;SDS011;59925;52.136;5.420;2022-11-20T01:08:04;12.95;;;5.65;;
72060;SDS011;59925;52.136;5.420;2022-11-20T01:10:31;13.60;;;6.60;;
72060;SDS011;59925;52.136;5.420;2022-11-20T01:12:57;11.20;;;5.83;;
72060;SDS011;59925;52.136;5.420;2022-11-20T01:15:49;11.88;;;5.90;;
72060;SDS011;59925;52.136;5.420;2022-11-20T01:18:15;16.15;;;6.85;;
72060;SDS011;59925;52.136;5.420;2022-11-20T01:20:42;12.18;;;5.90;;
72060;SDS011;59925;52.136;5.420;2022-11-20T01:23:08;11.50;;;5.63;;
72060;SDS011;59925;52.136;5.420;2022-11-20T01:25:35;12.53;;;6.40;;
72060;SDS011;59925;52.136;5.420;2022-11-20T01:28:01;12.38;;;6.38;;
72060;SDS011;59925;52.136;5.420;2022-11-20T01:30:28;16.05;;;7.63;;
72060;SDS011;59925;52.136;5.420;2022-11-20T01:32:55;13.60;;;6.28;;
72060;SDS011;59925;52.136;5.420;2022-11-20T01:35:21;16.23;;;7.32;;
72060;SDS011;59925;52.136;5.420;2022-11-20T01:37:48;15.60;;;6.80;;
72060;SDS011;59925;52.136;5.420;2022-11-20T01:40:16;13.68;;;7.07;;
72060;SDS011;59925;52.136;5.420;2022-11-20T01:42:47;15.98;;;7.40;;
72060;SDS011;59925;52.136;5.420;2022-11-20T01:46:04;13.77;;;6.18;;
72060;SDS011;59925;52.136;5.420;2022-11-20T01:54:06;15.25;;;7.40;;
72060;SDS011;59925;52.136;5.420;2022-11-20T01:56:38;13.80;;;6.53;;
72060;SDS011;59925;52.136;5.420;2022-11-20T01:59:09;14.40;;;6.93;;
72060;SDS011;59925;52.136;5.420;2022-11-20T02:01:37;14.30;;;6.45;;
72060;SDS011;59925;52.136;5.420;2022-11-20T02:04:05;15.17;;;6.90;;
72060;SDS011;59925;52.136;5.420;2022-11-20T02:07:20;17.92;;;6.45;;
72060;SDS011;59925;52.136;5.420;2022-11-20T02:09:26;11.80;;;5.60;;
72060;SDS011;59925;52.136;5.420;2022-11-20T02:11:53;14.80;;;6.85;;
72060;SDS011;59925;52.136;5.420;2022-11-20T02:14:21;15.57;;;7.47;;
72060;SDS011;59925;52.136;5.420;2022-11-20T02:16:48;15.80;;;6.50;;
72060;SDS011;59925;52.136;5.420;2022-11-20T02:19:22;14.27;;;6.30;;
72060;SDS011;59925;52.136;5.420;2022-11-20T02:22:02;12.70;;;7.32;;
72060;SDS011;59925;52.136;5.420;2022-11-20T02:24:36;13.88;;;6.60;;
72060;SDS011;59925;52.136;5.420;2022-11-20T02:27:03;13.35;;;6.65;;
72060;SDS011;59925;52.136;5.420;2022-11-20T02:32:00;13.40;;;6.38;;
72060;SDS011;59925;52.136;5.420;2022-11-20T02:34:28;14.98;;;7.43;;
72060;SDS011;59925;52.136;5.420;2022-11-20T02:36:54;14.20;;;6.32;;
72060;SDS011;59925;52.136;5.420;2022-11-20T02:39:23;14.10;;;6.68;;
72060;SDS011;59925;52.136;5.420;2022-11-20T02:41:52;19.80;;;7.87;;
72060;SDS011;59925;52.136;5.420;2022-11-20T02:44:20;12.15;;;6.82;;
72060;SDS011;59925;52.136;5.420;2022-11-20T02:46:46;18.67;;;7.32;;
72060;SDS011;59925;52.136;5.420;2022-11-20T02:49:13;15.05;;;6.88;;
72060;SDS011;59925;52.136;5.420;2022-11-20T02:51:39;14.15;;;7.25;;
72060;SDS011;59925;52.136;5.420;2022-11-20T02:54:05;14.50;;;6.97;;
72060;SDS011;59925;52.136;5.420;2022-11-20T02:56:32;14.45;;;6.93;;
72060;SDS011;59925;52.136;5.420;2022-11-20T02:58:58;15.40;;;6.82;;
72060;SDS011;59925;52.136;5.420;2022-11-20T03:01:24;13.07;;;6.53;;
72060;SDS011;59925;52.136;5.420;2022-11-20T03:03:51;15.50;;;6.82;;
72060;SDS011;59925;52.136;5.420;2022-11-20T03:06:20;12.60;;;6.83;;
72060;SDS011;59925;52.136;5.420;2022-11-20T03:08:46;13.38;;;7.03;;
72060;SDS011;59925;52.136;5.420;2022-11-20T03:11:13;14.25;;;7.30;;
72060;SDS011;59925;52.136;5.420;2022-11-20T03:13:40;15.15;;;7.30;;
72060;SDS011;59925;52.136;5.420;2022-11-20T03:16:17;15.45;;;7.53;;
72060;SDS011;59925;52.136;5.420;2022-11-20T03:18:45;16.83;;;7.93;;
72060;SDS011;59925;52.136;5.420;2022-11-20T03:21:12;16.50;;;6.65;;
72060;SDS011;59925;52.136;5.420;2022-11-20T03:23:40;16.45;;;6.82;;
72060;SDS011;59925;52.136;5.420;2022-11-20T03:28:35;14.07;;;6.32;;
72060;SDS011;59925;52.136;5.420;2022-11-20T03:31:06;16.10;;;7.43;;
72060;SDS011;59925;52.136;5.420;2022-11-20T03:33:37;16.25;;;7.05;;
72060;SDS011;59925;52.136;5.420;2022-11-20T03:36:05;13.88;;;7.07;;
72060;SDS011;59925;52.136;5.420;2022-11-20T03:38:34;12.38;;;6.28;;
72060;SDS011;59925;52.136;5.420;2022-11-20T03:41:02;15.63;;;7.18;;
72060;SDS011;59925;52.136;5.420;2022-11-20T03:43:30;13.33;;;5.63;;
72060;SDS011;59925;52.136;5.420;2022-11-20T03:45:57;15.07;;;6.88;;
72060;SDS011;59925;52.136;5.420;2022-11-20T03:48:23;15.38;;;6.60;;
72060;SDS011;59925;52.136;5.420;2022-11-20T03:50:50;15.00;;;7.35;;
72060;SDS011;59925;52.136;5.420;2022-11-20T03:53:17;14.23;;;7.50;;
72060;SDS011;59925;52.136;5.420;2022-11-20T03:55:44;13.63;;;6.40;;
72060;SDS011;59925;52.136;5.420;2022-11-20T03:58:10;12.02;;;6.88;;
72060;SDS011;59925;52.136;5.420;2022-11-20T04:00:37;20.90;;;6.93;;
72060;SDS011;59925;52.136;5.420;2022-11-20T04:03:03;13.90;;;7.22;;
72060;SDS011;59925;52.136;5.420;2022-11-20T04:05:29;13.55;;;7.20;;
72060;SDS011;59925;52.136;5.420;2022-11-20T04:07:56;13.33;;;6.33;;
72060;SDS011;59925;52.136;5.420;2022-11-20T04:10:23;13.18;;;6.80;;
72060;SDS011;59925;52.136;5.420;2022-11-20T04:12:49;13.50;;;7.15;;
72060;SDS011;59925;52.136;5.420;2022-11-20T04:15:16;16.70;;;5.50;;
72060;SDS011;59925;52.136;5.420;2022-11-20T04:17:42;13.55;;;6.78;;
72060;SDS011;59925;52.136;5.420;2022-11-20T04:20:09;13.83;;;7.43;;
72060;SDS011;59925;52.136;5.420;2022-11-20T04:22:35;17.13;;;7.45;;
72060;SDS011;59925;52.136;5.420;2022-11-20T04:25:02;10.85;;;6.43;;
72060;SDS011;59925;52.136;5.420;2022-11-20T04:27:28;13.80;;;6.75;;
72060;SDS011;59925;52.136;5.420;2022-11-20T04:29:56;13.23;;;6.38;;
72060;SDS011;59925;52.136;5.420;2022-11-20T04:32:23;11.40;;;6.17;;
72060;SDS011;59925;52.136;5.420;2022-11-20T04:34:49;16.25;;;6.60;;
72060;SDS011;59925;52.136;5.420;2022-11-20T04:37:15;12.90;;;7.15;;
72060;SDS011;59925;52.136;5.420;2022-11-20T04:39:42;14.18;;;6.68;;
72060;SDS011;59925;52.136;5.420;2022-11-20T04:42:09;14.05;;;6.38;;
72060;SDS011;59925;52.136;5.420;2022-11-20T04:44:54;12.90;;;6.50;;
72060;SDS011;59925;52.136;5.420;2022-11-20T04:47:21;9.95;;;5.90;;
72060;SDS011;59925;52.136;5.420;2022-11-20T04:49:48;12.10;;;6.13;;
72060;SDS011;59925;52.136;5.420;2022-11-20T04:52:14;13.52;;;6.07;;
72060;SDS011;59925;52.136;5.420;2022-11-20T04:54:40;13.73;;;5.90;;
72060;SDS011;59925;52.136;5.420;2022-11-20T04:57:07;13.77;;;6.77;;
72060;SDS011;59925;52.136;5.420;2022-11-20T04:59:39;12.95;;;6.38;;
72060;SDS011;59925;52.136;5.420;2022-11-20T05:02:06;9.88;;;5.57;;
72060;SDS011;59925;52.136;5.420;2022-11-20T05:04:32;9.57;;;5.55;;
72060;SDS011;59925;52.136;5.420;2022-11-20T05:06:59;12.77;;;5.88;;
72060;SDS011;59925;52.136;5.420;2022-11-20T05:09:25;11.53;;;6.00;;
72060;SDS011;59925;52.136;5.420;2022-11-20T05:11:52;11.60;;;6.20;;
72060;SDS011;59925;52.136;5.420;2022-11-20T05:14:18;13.10;;;6.38;;
72060;SDS011;59925;52.136;5.420;2022-11-20T05:16:45;12.73;;;5.90;;
72060;SDS011;59925;52.136;5.420;2022-11-20T05:19:11;13.98;;;6.65;;
72060;SDS011;59925;52.136;5.420;2022-11-20T05:21:37;17.20;;;6.30;;
72060;SDS011;59925;52.136;5.420;2022-11-20T05:24:04;11.63;;;6.30;;
72060;SDS011;59925;52.136;5.420;2022-11-20T05:26:30;11.25;;;6.15;;
72060;SDS011;59925;52.136;5.420;2022-11-20T05:28:57;13.90;;;6.80;;
72060;SDS011;59925;52.136;5.420;2022-11-20T05:31:24;17.33;;;6.68;;
72060;SDS011;59925;52.136;5.420;2022-11-20T05:33:53;12.33;;;5.83;;
72060;SDS011;59925;52.136;5.420;2022-11-20T05:36:21;12.73;;;6.25;;
72060;SDS011;59925;52.136;5.420;2022-11-20T05:38:47;12.45;;;5.75;;
72060;SDS011;59925;52.136;5.420;2022-11-20T05:41:17;9.98;;;5.28;;
72060;SDS011;59925;52.136;5.420;2022-11-20T05:43:45;9.73;;;4.30;;
72060;SDS011;59925;52.136;5.420;2022-11-20T05:46:13;9.90;;;5.73;;
72060;SDS011;59925;52.136;5.420;2022-11-20T05:48:41;10.93;;;5.70;;
72060;SDS011;59925;52.136;5.420;2022-11-20T05:51:09;14.38;;;6.47;;
72060;SDS011;59925;52.136;5.420;2022-11-20T05:53:38;11.10;;;5.60;;
72060;SDS011;59925;52.136;5.420;2022-11-20T05:56:13;12.50;;;5.50;;
72060;SDS011;59925;52.136;5.420;2022-11-20T05:58:44;12.27;;;5.47;;
72060;SDS011;59925;52.136;5.420;2022-11-20T06:03:40;11.15;;;4.90;;
72060;SDS011;59925;52.136;5.420;2022-11-20T06:06:08;10.43;;;5.35;;
72060;SDS011;59925;52.136;5.420;2022-11-20T06:08:35;10.88;;;5.53;;
72060;SDS011;59925;52.136;5.420;2022-11-20T06:11:05;14.40;;;5.53;;
72060;SDS011;59925;52.136;5.420;2022-11-20T06:13:33;11.45;;;5.03;;
72060;SDS011;59925;52.136;5.420;2022-11-20T06:16:05;10.93;;;5.15;;
72060;SDS011;59925;52.136;5.420;2022-11-20T06:18:32;9.02;;;4.90;;
72060;SDS011;59925;52.136;5.420;2022-11-20T06:21:06;10.45;;;5.90;;
72060;SDS011;59925;52.136;5.420;2022-11-20T06:23:34;13.73;;;4.60;;
72060;SDS011;59925;52.136;5.420;2022-11-20T06:26:02;9.82;;;5.45;;
72060;SDS011;59925;52.136;5.420;2022-11-20T06:28:29;11.40;;;4.93;;
72060;SDS011;59925;52.136;5.420;2022-11-20T06:30:56;11.52;;;5.40;;
72060;SDS011;59925;52.136;5.420;2022-11-20T06:33:22;11.07;;;5.13;;
72060;SDS011;59925;52.136;5.420;2022-11-20T06:35:49;9.70;;;5.13;;
72060;SDS011;59925;52.136;5.420;2022-11-20T06:38:22;11.30;;;5.43;;
72060;SDS011;59925;52.136;5.420;2022-11-20T06:40:48;11.15;;;4.97;;
72060;SDS011;59925;52.136;5.420;2022-11-20T06:43:14;12.65;;;5.43;;
72060;SDS011;59925;52.136;5.420;2022-11-20T06:45:41;9.57;;;5.35;;
72060;SDS011;59925;52.136;5.420;2022-11-20T06:48:07;14.77;;;5.97;;
72060;SDS011;59925;52.136;5.420;2022-11-20T06:50:33;10.10;;;5.05;;
72060;SDS011;59925;52.136;5.420;2022-11-20T06:53:00;12.68;;;4.65;;
72060;SDS011;59925;52.136;5.420;2022-11-20T06:55:29;9.75;;;5.35;;
72060;SDS011;59925;52.136;5.420;2022-11-20T06:57:55;10.02;;;4.68;;
72060;SDS011;59925;52.136;5.420;2022-11-20T07:00:22;13.30;;;5.13;;
72060;SDS011;59925;52.136;5.420;2022-11-20T07:02:48;13.35;;;5.13;;
72060;SDS011;59925;52.136;5.420;2022-11-20T07:05:16;13.45;;;5.78;;
72060;SDS011;59925;52.136;5.420;2022-11-20T07:07:43;12.57;;;5.85;;
72060;SDS011;59925;52.136;5.420;2022-11-20T07:10:09;12.27;;;6.05;;
72060;SDS011;59925;52.136;5.420;2022-11-20T07:12:36;12.57;;;5.97;;
72060;SDS011;59925;52.136;5.420;2022-11-20T07:15:02;14.45;;;5.97;;
72060;SDS011;59925;52.136;5.420;2022-11-20T07:17:29;10.30;;;4.68;;
72060;SDS011;59925;52.136;5.420;2022-11-20T07:19:55;10.40;;;6.00;;
72060;SDS011;59925;52.136;5.420;2022-11-20T07:22:22;12.02;;;6.05;;
72060;SDS011;59925;52.136;5.420;2022-11-20T07:24:48;10.87;;;5.43;;
72060;SDS011;59925;52.136;5.420;2022-11-20T07:27:14;10.07;;;4.78;;
72060;SDS011;59925;52.136;5.420;2022-11-20T07:29:41;12.07;;;5.65;;
72060;SDS011;59925;52.136;5.420;2022-11-20T07:32:07;14.73;;;6.15;;
72060;SDS011;59925;52.136;5.420;2022-11-20T07:34:33;11.27;;;5.93;;
72060;SDS011;59925;52.136;5.420;2022-11-20T07:37:00;14.03;;;6.47;;
72060;SDS011;59925;52.136;5.420;2022-11-20T07:39:34;11.38;;;5.50;;
72060;SDS011;59925;52.136;5.420;2022-11-20T07:42:00;13.90;;;6.13;;
72060;SDS011;59925;52.136;5.420;2022-11-20T07:44:27;12.00;;;6.32;;
72060;SDS011;59925;52.136;5.420;2022-11-20T07:46:53;19.20;;;6.95;;
72060;SDS011;59925;52.136;5.420;2022-11-20T07:49:19;12.03;;;5.73;;
72060;SDS011;59925;52.136;5.420;2022-11-20T07:51:46;12.35;;;6.03;;
72060;SDS011;59925;52.136;5.420;2022-11-20T07:54:17;11.90;;;5.30;;
72060;SDS011;59925;52.136;5.420;2022-11-20T07:56:43;13.20;;;5.72;;
72060;SDS011;59925;52.136;5.420;2022-11-20T07:59:09;16.08;;;6.50;;
72060;SDS011;59925;52.136;5.420;2022-11-20T08:01:38;11.30;;;6.30;;
72060;SDS011;59925;52.136;5.420;2022-11-20T08:04:05;13.02;;;6.50;;
72060;SDS011;59925;52.136;5.420;2022-11-20T08:06:32;12.35;;;6.55;;
72060;SDS011;59925;52.136;5.420;2022-11-20T08:08:58;17.88;;;6.55;;
72060;SDS011;59925;52.136;5.420;2022-11-20T08:11:25;15.05;;;7.45;;
72060;SDS011;59925;52.136;5.420;2022-11-20T08:14:09;20.60;;;6.97;;
72060;SDS011;59925;52.136;5.420;2022-11-20T08:16:39;15.25;;;7.55;;
72060;SDS011;59925;52.136;5.420;2022-11-20T08:19:07;16.80;;;6.95;;
72060;SDS011;59925;52.136;5.420;2022-11-20T08:21:33;18.27;;;7.65;;
72060;SDS011;59925;52.136;5.420;2022-11-20T08:24:03;14.60;;;7.18;;
72060;SDS011;59925;52.136;5.420;2022-11-20T08:26:30;15.70;;;7.40;;
72060;SDS011;59925;52.136;5.420;2022-11-20T08:28:57;16.67;;;6.88;;
72060;SDS011;59925;52.136;5.420;2022-11-20T08:31:24;20.33;;;8.32;;
72060;SDS011;59925;52.136;5.420;2022-11-20T08:33:52;15.23;;;7.47;;
72060;SDS011;59925;52.136;5.420;2022-11-20T08:36:19;15.93;;;7.63;;
72060;SDS011;59925;52.136;5.420;2022-11-20T08:38:50;17.93;;;8.57;;
72060;SDS011;59925;52.136;5.420;2022-11-20T08:41:18;15.45;;;7.95;;
72060;SDS011;59925;52.136;5.420;2022-11-20T08:43:58;20.88;;;8.50;;
72060;SDS011;59925;52.136;5.420;2022-11-20T08:46:27;18.70;;;8.43;;
72060;SDS011;59925;52.136;5.420;2022-11-20T08:48:59;21.88;;;8.10;;
72060;SDS011;59925;52.136;5.420;2022-11-20T08:51:25;17.17;;;8.23;;
72060;SDS011;59925;52.136;5.420;2022-11-20T08:53:52;17.50;;;9.23;;
72060;SDS011;59925;52.136;5.420;2022-11-20T08:56:18;16.67;;;9.15;;
72060;SDS011;59925;52.136;5.420;2022-11-20T08:58:45;17.13;;;8.45;;
72060;SDS011;59925;52.136;5.420;2022-11-20T09:01:31;17.52;;;8.65;;
72060;SDS011;59925;52.136;5.420;2022-11-20T09:03:58;20.00;;;8.23;;
72060;SDS011;59925;52.136;5.420;2022-11-20T09:06:25;17.63;;;8.88;;
72060;SDS011;59925;52.136;5.420;2022-11-20T09:08:52;19.05;;;9.35;;
72060;SDS011;59925;52.136;5.420;2022-11-20T09:11:19;14.25;;;8.13;;
72060;SDS011;59925;52.136;5.420;2022-11-20T09:13:46;18.63;;;8.07;;
72060;SDS011;59925;52.136;5.420;2022-11-20T09:16:12;15.90;;;8.30;;
72060;SDS011;59925;52.136;5.420;2022-11-20T09:18:39;16.67;;;9.00;;
72060;SDS011;59925;52.136;5.420;2022-11-20T09:21:06;21.73;;;9.10;;
72060;SDS011;59925;52.136;5.420;2022-11-20T09:23:37;17.58;;;8.70;;
72060;SDS011;59925;52.136;5.420;2022-11-20T09:26:04;19.73;;;9.98;;
72060;SDS011;59925;52.136;5.420;2022-11-20T09:28:40;17.77;;;9.13;;
72060;SDS011;59925;52.136;5.420;2022-11-20T09:31:07;19.25;;;9.55;;
72060;SDS011;59925;52.136;5.420;2022-11-20T09:33:34;17.63;;;9.00;;
72060;SDS011;59925;52.136;5.420;2022-11-20T09:36:01;17.52;;;9.35;;
72060;SDS011;59925;52.136;5.420;2022-11-20T09:38:28;17.15;;;9.70;;
72060;SDS011;59925;52.136;5.420;2022-11-20T09:40:58;17.07;;;9.97;;
72060;SDS011;59925;52.136;5.420;2022-11-20T09:46:21;16.70;;;9.20;;
72060;SDS011;59925;52.136;5.420;2022-11-20T09:54:47;15.63;;;9.07;;
72060;SDS011;59925;52.136;5.420;2022-11-20T09:57:19;20.23;;;9.90;;
72060;SDS011;59925;52.136;5.420;2022-11-20T09:59:59;18.48;;;8.77;;
72060;SDS011;59925;52.136;5.420;2022-11-20T10:02:30;13.93;;;8.15;;
72060;SDS011;59925;52.136;5.420;2022-11-20T10:07:43;19.40;;;9.53;;
72060;SDS011;59925;52.136;5.420;2022-11-20T10:10:33;16.55;;;9.32;;
72060;SDS011;59925;52.136;5.420;2022-11-20T10:18:59;15.30;;;8.82;;
72060;SDS011;59925;52.136;5.420;2022-11-20T10:24:48;17.95;;;8.57;;
72060;SDS011;59925;52.136;5.420;2022-11-20T10:30:20;22.02;;;9.43;;
72060;SDS011;59925;52.136;5.420;2022-11-20T10:33:01;20.88;;;9.82;;
72060;SDS011;59925;52.136;5.420;2022-11-20T10:35:36;19.47;;;9.73;;
72060;SDS011;59925;52.136;5.420;2022-11-20T10:38:11;18.80;;;10.23;;
72060;SDS011;59925;52.136;5.420;2022-11-20T10:40:45;18.67;;;9.60;;
72060;SDS011;59925;52.136;5.420;2022-11-20T10:43:16;19.60;;;9.68;;
72060;SDS011;59925;52.136;5.420;2022-11-20T10:48:27;17.60;;;9.30;;
72060;SDS011;59925;52.136;5.420;2022-11-20T10:51:15;19.55;;;10.32;;
72060;SDS011;59925;52.136;5.420;2022-11-20T10:56:52;20.45;;;9.93;;
72060;SDS011;59925;52.136;5.420;2022-11-20T11:02:12;20.23;;;10.77;;
72060;SDS011;59925;52.136;5.420;2022-11-20T11:04:53;24.65;;;11.73;;
72060;SDS011;59925;52.136;5.420;2022-11-20T11:09:48;26.77;;;11.43;;
72060;SDS011;59925;52.136;5.420;2022-11-20T11:12:24;21.70;;;11.45;;
72060;SDS011;59925;52.136;5.420;2022-11-20T11:14:53;22.13;;;11.43;;
72060;SDS011;59925;52.136;5.420;2022-11-20T11:19:58;22.52;;;11.63;;
72060;SDS011;59925;52.136;5.420;2022-11-20T11:22:25;20.55;;;10.38;;
72060;SDS011;59925;52.136;5.420;2022-11-20T11:24:55;23.52;;;11.57;;
72060;SDS011;59925;52.136;5.420;2022-11-20T11:27:21;24.63;;;12.37;;
72060;SDS011;59925;52.136;5.420;2022-11-20T11:29:48;25.10;;;12.18;;
72060;SDS011;59925;52.136;5.420;2022-11-20T11:32:15;25.95;;;12.40;;
72060;SDS011;59925;52.136;5.420;2022-11-20T11:34:44;22.10;;;11.73;;
72060;SDS011;59925;52.136;5.420;2022-11-20T11:37:17;24.50;;;12.55;;
72060;SDS011;59925;52.136;5.420;2022-11-20T11:39:47;26.27;;;11.73;;
72060;SDS011;59925;52.136;5.420;2022-11-20T11:42:29;24.20;;;12.68;;
72060;SDS011;59925;52.136;5.420;2022-11-20T11:44:56;24.80;;;12.00;;
72060;SDS011;59925;52.136;5.420;2022-11-20T11:47:43;25.40;;;12.32;;
72060;SDS011;59925;52.136;5.420;2022-11-20T11:52:43;27.40;;;12.47;;
72060;SDS011;59925;52.136;5.420;2022-11-20T11:58:11;29.95;;;13.25;;
72060;SDS011;59925;52.136;5.420;2022-11-20T12:00:51;29.05;;;13.77;;
72060;SDS011;59925;52.136;5.420;2022-11-20T12:03:27;26.95;;;12.60;;
72060;SDS011;59925;52.136;5.420;2022-11-20T12:06:20;29.03;;;13.40;;
72060;SDS011;59925;52.136;5.420;2022-11-20T12:08:51;28.52;;;13.65;;
72060;SDS011;59925;52.136;5.420;2022-11-20T12:16:50;25.05;;;12.48;;
72060;SDS011;59925;52.136;5.420;2022-11-20T12:19:18;27.07;;;12.70;;
72060;SDS011;59925;52.136;5.420;2022-11-20T12:29:43;25.20;;;13.02;;
72060;SDS011;59925;52.136;5.420;2022-11-20T12:47:34;24.63;;;11.87;;
72060;SDS011;59925;52.136;5.420;2022-11-20T12:52:48;23.33;;;12.07;;
72060;SDS011;59925;52.136;5.420;2022-11-20T12:55:32;25.35;;;12.20;;
72060;SDS011;59925;52.136;5.420;2022-11-20T12:58:09;22.08;;;11.30;;
72060;SDS011;59925;52.136;5.420;2022-11-20T13:00:47;25.27;;;11.63;;
72060;SDS011;59925;52.136;5.420;2022-11-20T13:03:31;24.80;;;12.88;;
72060;SDS011;59925;52.136;5.420;2022-11-20T13:06:18;23.25;;;12.23;;
72060;SDS011;59925;52.136;5.420;2022-11-20T13:08:50;27.25;;;13.13;;
72060;SDS011;59925;52.136;5.420;2022-11-20T13:11:27;28.83;;;14.50;;
72060;SDS011;59925;52.136;5.420;2022-11-20T13:14:07;26.63;;;13.70;;
72060;SDS011;59925;52.136;5.420;2022-11-20T13:16:48;26.20;;;13.00;;
72060;SDS011;59925;52.136;5.420;2022-11-20T13:19:20;25.77;;;12.50;;
72060;SDS011;59925;52.136;5.420;2022-11-20T13:21:48;25.08;;;13.45;;
72060;SDS011;59925;52.136;5.420;2022-11-20T13:26:46;26.07;;;13.77;;
72060;SDS011;59925;52.136;5.420;2022-11-20T13:29:16;26.45;;;12.23;;
72060;SDS011;59925;52.136;5.420;2022-11-20T13:31:45;24.35;;;12.60;;
72060;SDS011;59925;52.136;5.420;2022-11-20T13:34:36;26.58;;;12.73;;
72060;SDS011;59925;52.136;5.420;2022-11-20T13:36:59;29.88;;;12.82;;
72060;SDS011;59925;52.136;5.420;2022-11-20T13:39:33;26.97;;;13.10;;
72060;SDS011;59925;52.136;5.420;2022-11-20T13:42:24;25.77;;;12.48;;
72060;SDS011;59925;52.136;5.420;2022-11-20T13:44:54;26.73;;;12.40;;
72060;SDS011;59925;52.136;5.420;2022-11-20T13:47:22;22.75;;;11.90;;
72060;SDS011;59925;52.136;5.420;2022-11-20T13:49:51;23.13;;;12.38;;
72060;SDS011;59925;52.136;5.420;2022-11-20T13:52:29;27.97;;;13.23;;
72060;SDS011;59925;52.136;5.420;2022-11-20T14:01:06;28.67;;;12.23;;
72060;SDS011;59925;52.136;5.420;2022-11-20T14:03:35;26.05;;;12.65;;
72060;SDS011;59925;52.136;5.420;2022-11-20T14:08:54;29.65;;;13.98;;
72060;SDS011;59925;52.136;5.420;2022-11-20T14:11:23;28.50;;;13.13;;
72060;SDS011;59925;52.136;5.420;2022-11-20T14:13:55;27.23;;;13.07;;
72060;SDS011;59925;52.136;5.420;2022-11-20T14:16:22;27.13;;;12.82;;
72060;SDS011;59925;52.136;5.420;2022-11-20T14:18:49;26.60;;;13.60;;
72060;SDS011;59925;52.136;5.420;2022-11-20T14:21:23;32.15;;;13.15;;
72060;SDS011;59925;52.136;5.420;2022-11-20T14:24:02;28.20;;;12.80;;
72060;SDS011;59925;52.136;5.420;2022-11-20T14:26:30;24.65;;;12.48;;
72060;SDS011;59925;52.136;5.420;2022-11-20T14:28:57;25.65;;;13.25;;
72060;SDS011;59925;52.136;5.420;2022-11-20T14:31:24;29.87;;;13.30;;
72060;SDS011;59925;52.136;5.420;2022-11-20T14:33:53;27.63;;;13.85;;
72060;SDS011;59925;52.136;5.420;2022-11-20T14:36:21;27.85;;;13.10;;
72060;SDS011;59925;52.136;5.420;2022-11-20T14:38:50;32.80;;;13.63;;
72060;SDS011;59925;52.136;5.420;2022-11-20T14:41:19;29.65;;;12.95;;
72060;SDS011;59925;52.136;5.420;2022-11-20T14:43:54;30.87;;;13.43;;
72060;SDS011;59925;52.136;5.420;2022-11-20T14:46:23;30.92;;;13.73;;
72060;SDS011;59925;52.136;5.420;2022-11-20T14:48:51;28.95;;;15.32;;
72060;SDS011;59925;52.136;5.420;2022-11-20T14:51:28;33.35;;;14.63;;
72060;SDS011;59925;52.136;5.420;2022-11-20T14:56:59;27.27;;;14.00;;
72060;SDS011;59925;52.136;5.420;2022-11-20T14:59:28;24.02;;;12.90;;
72060;SDS011;59925;52.136;5.420;2022-11-20T15:01:58;27.65;;;13.82;;
72060;SDS011;59925;52.136;5.420;2022-11-20T15:04:26;27.00;;;13.38;;
72060;SDS011;59925;52.136;5.420;2022-11-20T15:06:54;30.65;;;14.13;;
72060;SDS011;59925;52.136;5.420;2022-11-20T15:09:22;26.93;;;13.53;;
72060;SDS011;59925;52.136;5.420;2022-11-20T15:11:55;28.35;;;13.73;;
72060;SDS011;59925;52.136;5.420;2022-11-20T15:14:24;28.65;;;14.13;;
72060;SDS011;59925;52.136;5.420;2022-11-20T15:16:53;30.90;;;14.32;;
72060;SDS011;59925;52.136;5.420;2022-11-20T15:19:20;29.63;;;14.35;;
72060;SDS011;59925;52.136;5.420;2022-11-20T15:21:48;40.23;;;15.63;;
72060;SDS011;59925;52.136;5.420;2022-11-20T15:24:16;34.50;;;14.70;;
72060;SDS011;59925;52.136;5.420;2022-11-20T15:26:43;32.25;;;14.57;;
72060;SDS011;59925;52.136;5.420;2022-11-20T15:29:10;29.48;;;14.45;;
72060;SDS011;59925;52.136;5.420;2022-11-20T15:31:38;30.10;;;14.77;;
72060;SDS011;59925;52.136;5.420;2022-11-20T15:34:12;28.07;;;14.50;;
72060;SDS011;59925;52.136;5.420;2022-11-20T15:36:42;31.10;;;14.88;;
72060;SDS011;59925;52.136;5.420;2022-11-20T15:39:09;26.48;;;12.93;;
72060;SDS011;59925;52.136;5.420;2022-11-20T15:41:37;30.08;;;13.52;;
72060;SDS011;59925;52.136;5.420;2022-11-20T15:44:07;33.17;;;14.93;;
72060;SDS011;59925;52.136;5.420;2022-11-20T15:46:35;31.90;;;14.87;;
72060;SDS011;59925;52.136;5.420;2022-11-20T15:49:05;31.27;;;14.75;;
72060;SDS011;59925;52.136;5.420;2022-11-20T15:51:35;32.53;;;16.05;;
72060;SDS011;59925;52.136;5.420;2022-11-20T15:54:09;33.35;;;15.57;;
72060;SDS011;59925;52.136;5.420;2022-11-20T15:56:37;33.13;;;14.45;;
72060;SDS011;59925;52.136;5.420;2022-11-20T15:59:04;29.57;;;14.77;;
72060;SDS011;59925;52.136;5.420;2022-11-20T16:01:31;28.38;;;14.13;;
72060;SDS011;59925;52.136;5.420;2022-11-20T16:03:58;32.45;;;16.38;;
72060;SDS011;59925;52.136;5.420;2022-11-20T16:06:25;33.05;;;15.70;;
72060;SDS011;59925;52.136;5.420;2022-11-20T16:08:52;30.27;;;14.85;;
72060;SDS011;59925;52.136;5.420;2022-11-20T16:11:18;32.97;;;15.97;;
72060;SDS011;59925;52.136;5.420;2022-11-20T16:13:45;33.95;;;17.10;;
72060;SDS011;59925;52.136;5.420;2022-11-20T16:16:33;31.75;;;15.10;;
72060;SDS011;59925;52.136;5.420;2022-11-20T16:19:02;32.05;;;15.18;;
72060;SDS011;59925;52.136;5.420;2022-11-20T16:21:28;32.47;;;13.85;;
72060;SDS011;59925;52.136;5.420;2022-11-20T16:23:58;31.93;;;13.83;;
72060;SDS011;59925;52.136;5.420;2022-11-20T16:26:26;30.65;;;14.20;;